Time;durP1;ratioP1;P1;durP2;ratioP2;P2;SDS_P1;SDS_P2;PMS_P1;PMS_P2;Temp;Humidity;BMP_temperature;BMP_pressure;BME280_temperature;BME280_humidity;BME280_pressure;Samples;Min_cycle;Max_cycle;Signal;HPM_P1;HPM_P2
2021/01/25 00:02:13;;;;;;;;;;;;;;;28.51;21.62;99565.06;5097457;28;771;-36
2021/01/25 00:04:39;;;;;;;;;;;;;;;28.66;21.49;99561.22;5097659;28;1966;-33
2021/01/25 00:07:04;;;;;;;;;;;;;;;28.86;21.21;99566.44;5097883;28;766;-38
2021/01/25 00:09:31;;;;;;;;;;;;;;;28.82;21.00;99571.47;5097123;28;1118;-35
2021/01/25 00:11:56;;;;;;;;;;;;;;;28.91;20.90;99558.44;5097667;28;827;-33
2021/01/25 00:14:21;;;;;;;;;;;;;;;27.76;22.50;99570.13;5096780;28;1009;-31
2021/01/25 00:16:47;;;;;;;;;;;;;;;27.54;22.89;99566.91;5096976;28;756;-32
2021/01/25 00:19:12;;;;;;;;;;;;;;;28.55;21.91;99546.53;5097557;28;850;-32
2021/01/25 00:21:37;;;;;;;;;;;;;;;28.21;21.82;99560.31;5097519;28;760;-30
2021/01/25 00:24:03;;;;;;;;;;;;;;;27.23;23.27;99542.28;5096486;28;1898;-32
2021/01/25 00:26:28;;;;;;;;;;;;;;;27.70;22.98;99535.88;5097663;28;751;-29
2021/01/25 00:28:53;;;;;;;;;;;;;;;28.46;21.83;99540.59;5096919;28;1051;-31
2021/01/25 00:31:19;;;;;;;;;;;;;;;28.39;21.84;99534.41;5096772;28;753;-30
2021/01/25 00:33:44;;;;;;;;;;;;;;;27.54;23.16;99529.09;5097160;28;902;-32
2021/01/25 00:36:09;;;;;;;;;;;;;;;27.06;23.77;99534.66;5097208;28;759;-31
2021/01/25 00:38:35;;;;;;;;;;;;;;;27.50;23.46;99534.94;5097050;28;716;-31
2021/01/25 00:41:00;;;;;;;;;;;;;;;28.34;22.18;99532.38;5097177;28;838;-30
2021/01/25 00:43:25;;;;;;;;;;;;;;;27.60;23.19;99531.75;5096348;28;1111;-27
2021/01/25 00:45:50;;;;;;;;;;;;;;;27.05;24.03;99527.63;5096511;28;1914;-28
2021/01/25 00:48:16;;;;;;;;;;;;;;;27.09;24.12;99523.44;5097022;28;823;-30
2021/01/25 00:50:41;;;;;;;;;;;;;;;27.81;23.02;99516.28;5096580;28;756;-27
2021/01/25 00:53:06;;;;;;;;;;;;;;;28.27;22.69;99505.34;5096680;28;859;-26
2021/01/25 00:55:31;;;;;;;;;;;;;;;28.55;22.26;99509.50;5097053;28;763;-33
2021/01/25 00:57:57;;;;;;;;;;;;;;;28.78;22.09;99515.31;5096622;28;1176;-31
2021/01/25 01:00:22;;;;;;;;;;;;;;;28.94;21.48;99514.72;5096884;28;806;-30
2021/01/25 01:02:48;;;;;;;;;;;;;;;28.24;22.44;99500.38;5096714;28;748;-30
2021/01/25 01:05:13;;;;;;;;;;;;;;;27.72;23.02;99477.91;5096595;28;1972;-30
2021/01/25 01:07:38;;;;;;;;;;;;;;;28.48;22.50;99485.22;5096698;28;1193;-30
2021/01/25 01:10:04;;;;;;;;;;;;;;;28.85;21.80;99480.88;5096509;28;760;-29
2021/01/25 01:12:29;;;;;;;;;;;;;;;29.01;21.51;99476.75;5095644;28;1008;-31
2021/01/25 01:14:55;;;;;;;;;;;;;;;29.19;21.42;99462.38;5096982;28;820;-29
2021/01/25 01:17:20;;;;;;;;;;;;;;;28.30;22.05;99463.50;5096332;28;775;-29
2021/01/25 01:19:45;;;;;;;;;;;;;;;27.83;22.84;99456.59;5096422;28;804;-29
2021/01/25 01:22:10;;;;;;;;;;;;;;;28.49;22.43;99450.88;5096629;28;910;-32
2021/01/25 01:24:36;;;;;;;;;;;;;;;28.82;21.78;99449.69;5096041;28;1960;-32
2021/01/25 01:27:01;;;;;;;;;;;;;;;29.04;21.36;99448.41;5096483;28;798;-28
2021/01/25 01:29:26;;;;;;;;;;;;;;;29.20;21.26;99449.66;5096393;28;953;-31
2021/01/25 01:31:52;;;;;;;;;;;;;;;29.24;21.31;99445.44;5096190;28;780;-29
2021/01/25 01:34:17;;;;;;;;;;;;;;;28.63;21.68;99439.91;5096428;28;767;-33
2021/01/25 01:36:42;;;;;;;;;;;;;;;27.94;22.77;99426.19;5096497;28;855;-30
2021/01/25 01:39:07;;;;;;;;;;;;;;;28.61;21.92;99418.50;5095997;28;780;-30
2021/01/25 01:41:39;;;;;;;;;;;;;;;29.03;21.41;99425.09;5096209;28;1094;-29
2021/01/25 01:44:05;;;;;;;;;;;;;;;29.19;21.25;99418.22;5095754;28;1913;-30
2021/01/25 01:46:30;;;;;;;;;;;;;;;29.25;21.00;99408.34;5095915;28;831;-28
2021/01/25 01:48:55;;;;;;;;;;;;;;;29.20;21.18;99396.31;5094908;28;811;-30
2021/01/25 01:51:20;;;;;;;;;;;;;;;28.13;22.40;99398.38;5096333;28;857;-31
2021/01/25 01:53:46;;;;;;;;;;;;;;;27.95;23.02;99397.28;5095425;28;980;-31
2021/01/25 01:56:11;;;;;;;;;;;;;;;28.75;21.80;99399.38;5094701;28;772;-30
2021/01/25 01:58:36;;;;;;;;;;;;;;;29.04;21.23;99402.38;5095768;28;976;-29
2021/01/25 02:01:02;;;;;;;;;;;;;;;29.15;21.31;99398.06;5095702;28;862;-33
2021/01/25 02:03:27;;;;;;;;;;;;;;;29.25;21.06;99397.50;5098222;28;847;-30
2021/01/25 02:05:52;;;;;;;;;;;;;;;29.33;21.24;99408.84;5100405;28;1961;-29
2021/01/25 02:08:18;;;;;;;;;;;;;;;28.39;22.18;99397.31;5099706;28;1201;-30
2021/01/25 02:10:43;;;;;;;;;;;;;;;28.37;22.02;99380.47;5100011;28;854;-33
2021/01/25 02:13:08;;;;;;;;;;;;;;;29.24;21.01;99371.50;5099148;28;961;-30
2021/01/25 02:15:33;;;;;;;;;;;;;;;28.46;22.12;99368.28;5099366;28;791;-36
2021/01/25 02:17:59;;;;;;;;;;;;;;;28.14;22.59;99363.00;5099858;28;740;-30
2021/01/25 02:20:24;;;;;;;;;;;;;;;28.09;22.70;99371.75;5099837;28;747;-31
2021/01/25 02:22:59;;;;;;;;;;;;;;;29.02;21.56;99358.47;5099111;28;762;-28
2021/01/25 02:25:39;;;;;;;;;;;;;;;29.60;20.96;99355.31;5098131;28;1894;-37
2021/01/25 02:28:05;;;;;;;;;;;;;;;29.86;20.41;99354.06;5099180;28;1009;-36
2021/01/25 02:30:30;;;;;;;;;;;;;;;29.97;20.34;99360.53;5098021;28;810;-32
2021/01/25 02:32:55;;;;;;;;;;;;;;;29.97;20.40;99357.00;5099547;28;748;-32
2021/01/25 02:35:20;;;;;;;;;;;;;;;30.09;20.32;99352.41;5097810;28;852;-32
2021/01/25 02:37:46;;;;;;;;;;;;;;;30.04;20.40;99353.13;5097551;28;792;-31
2021/01/25 02:40:12;;;;;;;;;;;;;;;30.16;20.09;99346.84;5099467;28;746;-34
2021/01/25 02:42:37;;;;;;;;;;;;;;;30.18;20.04;99348.25;5098530;28;1233;-32
2021/01/25 02:45:03;;;;;;;;;;;;;;;30.26;20.13;99349.00;5096685;28;1906;-33
2021/01/25 02:47:28;;;;;;;;;;;;;;;30.36;20.05;99338.34;5099288;28;797;-30
2021/01/25 02:49:54;;;;;;;;;;;;;;;30.33;19.75;99340.72;5097968;28;779;-37
2021/01/25 02:52:19;;;;;;;;;;;;;;;30.40;19.81;99315.09;5098758;28;763;-34
2021/01/25 02:54:44;;;;;;;;;;;;;;;30.39;20.00;99321.59;5099490;28;791;-32
2021/01/25 02:57:10;;;;;;;;;;;;;;;29.81;20.23;99305.16;5098918;28;801;-31
2021/01/25 02:59:35;;;;;;;;;;;;;;;29.26;21.28;99312.50;5096297;28;1018;-33
2021/01/25 03:02:01;;;;;;;;;;;;;;;30.10;20.43;99299.81;5099032;28;843;-27
2021/01/25 03:04:26;;;;;;;;;;;;;;;30.25;19.97;99310.19;5096837;28;1964;-32
2021/01/25 03:06:51;;;;;;;;;;;;;;;30.34;20.12;99307.09;5099214;28;799;-31
2021/01/25 03:09:17;;;;;;;;;;;;;;;30.38;19.96;99300.94;5098398;28;1145;-31
2021/01/25 03:11:42;;;;;;;;;;;;;;;30.37;20.09;99307.44;5098714;28;759;-32
2021/01/25 03:14:08;;;;;;;;;;;;;;;30.47;19.79;99300.56;5097065;28;950;-31
2021/01/25 03:16:33;;;;;;;;;;;;;;;30.52;19.71;99295.22;5098906;28;741;-33
2021/01/25 03:18:58;;;;;;;;;;;;;;;30.53;19.67;99283.34;5098620;28;835;-32
2021/01/25 03:21:24;;;;;;;;;;;;;;;30.55;19.71;99275.75;5098351;28;823;-32
2021/01/25 03:23:50;;;;;;;;;;;;;;;30.57;19.73;99278.22;5098503;28;1967;-30
2021/01/25 03:26:16;;;;;;;;;;;;;;;30.19;19.92;99259.59;5098318;28;752;-34
2021/01/25 03:28:41;;;;;;;;;;;;;;;29.89;20.42;99261.44;5097889;28;1000;-31
2021/01/25 03:31:06;;;;;;;;;;;;;;;30.17;20.34;99259.00;5098266;28;991;-28
2021/01/25 03:33:32;;;;;;;;;;;;;;;30.10;19.87;99250.16;5098361;28;780;-32
2021/01/25 03:35:57;;;;;;;;;;;;;;;29.37;20.69;99243.97;5098142;28;835;-27
2021/01/25 03:38:22;;;;;;;;;;;;;;;29.44;20.91;99244.69;5098032;28;763;-33
2021/01/25 03:40:47;;;;;;;;;;;;;;;30.09;20.37;99248.53;5098329;28;866;-30
2021/01/25 03:43:13;;;;;;;;;;;;;;;30.29;19.98;99250.84;5097587;28;1115;-34
2021/01/25 03:45:39;;;;;;;;;;;;;;;30.31;19.97;99246.81;5097565;28;1926;-31
2021/01/25 03:48:04;;;;;;;;;;;;;;;30.40;20.08;99238.31;5098188;28;755;-36
2021/01/25 03:50:29;;;;;;;;;;;;;;;30.43;19.80;99238.66;5097981;28;756;-33
2021/01/25 03:52:59;;;;;;;;;;;;;;;30.49;19.86;99236.03;5097526;28;862;-35
2021/01/25 03:55:24;;;;;;;;;;;;;;;30.58;19.75;99229.13;5097753;28;839;-36
2021/01/25 03:57:49;;;;;;;;;;;;;;;30.62;19.76;99224.88;5097400;28;937;-31
2021/01/25 04:00:15;;;;;;;;;;;;;;;30.66;19.56;99217.88;5097792;28;799;-30
2021/01/25 04:02:40;;;;;;;;;;;;;;;30.29;19.95;99211.00;5097724;28;727;-33
2021/01/25 04:05:06;;;;;;;;;;;;;;;30.01;20.24;99209.88;5097638;28;1906;-36
2021/01/25 04:07:31;;;;;;;;;;;;;;;30.35;19.91;99205.66;5097658;28;1122;-32
2021/01/25 04:09:56;;;;;;;;;;;;;;;30.59;19.65;99221.81;5097797;28;739;-35
2021/01/25 04:12:22;;;;;;;;;;;;;;;29.01;21.14;99222.28;5097481;28;731;-31
2021/01/25 04:14:47;;;;;;;;;;;;;;;27.38;23.52;99234.19;5096855;28;953;-31
2021/01/25 04:17:13;;;;;;;;;;;;;;;26.51;24.25;99239.13;5097630;28;882;-32
2021/01/25 04:19:38;;;;;;;;;;;;;;;22.55;31.12;99233.75;5097331;28;816;-33
2021/01/25 04:22:03;;;;;;;;;;;;;;;24.15;28.38;99235.41;5096786;28;1031;-32
2021/01/25 04:24:29;;;;;;;;;;;;;;;22.05;32.05;99246.94;5097447;28;1902;-29
2021/01/25 04:26:54;;;;;;;;;;;;;;;22.29;32.66;99239.63;5096267;28;823;-30
2021/01/25 04:29:19;;;;;;;;;;;;;;;21.71;33.88;99228.53;5096581;28;965;-30
2021/01/25 04:31:44;;;;;;;;;;;;;;;22.05;33.65;99236.22;5097347;28;857;-30
2021/01/25 04:34:10;;;;;;;;;;;;;;;22.83;32.20;99242.91;5097048;28;827;-29
2021/01/25 04:36:35;;;;;;;;;;;;;;;22.86;32.13;99245.22;5097215;28;755;-28
2021/01/25 04:39:00;;;;;;;;;;;;;;;21.04;35.76;99244.34;5105526;28;1533;-30
2021/01/25 04:41:26;;;;;;;;;;;;;;;21.41;34.59;99237.34;5096949;28;1230;-31
2021/01/25 04:43:52;;;;;;;;;;;;;;;20.72;36.14;99239.00;5096269;28;1906;-31
2021/01/25 04:46:17;;;;;;;;;;;;;;;22.36;33.18;99237.84;5096508;28;811;-32
2021/01/25 04:48:44;;;;;;;;;;;;;;;22.69;32.48;99247.31;5095929;28;810;-32
2021/01/25 04:51:09;;;;;;;;;;;;;;;22.27;33.20;99253.19;5112867;28;760;-29
2021/01/25 04:53:34;;;;;;;;;;;;;;;23.51;31.28;99255.06;5115961;28;826;-28
2021/01/25 04:56:00;;;;;;;;;;;;;;;24.65;29.46;99261.25;5115385;28;819;-33
2021/01/25 04:58:25;;;;;;;;;;;;;;;26.02;27.00;99253.84;5107047;28;965;-31
2021/01/25 05:00:50;;;;;;;;;;;;;;;26.72;25.90;99258.75;5096948;28;803;-35
2021/01/25 05:03:16;;;;;;;;;;;;;;;26.61;25.79;99257.56;5094926;28;825;-32
2021/01/25 05:05:41;;;;;;;;;;;;;;;27.08;25.27;99245.66;5096280;28;1957;-30
2021/01/25 05:08:06;;;;;;;;;;;;;;;27.57;24.26;99236.94;5096847;28;1134;-31
2021/01/25 05:10:32;;;;;;;;;;;;;;;27.90;24.10;99248.47;5096815;28;775;-31
2021/01/25 05:12:57;;;;;;;;;;;;;;;28.02;23.92;99245.84;5095092;28;966;-34
2021/01/25 05:15:32;;;;;;;;;;;;;;;28.11;23.57;99268.84;5096613;28;743;-35
2021/01/25 05:18:00;;;;;;;;;;;;;;;28.22;23.17;99261.84;5097005;28;772;-33
2021/01/25 05:20:26;;;;;;;;;;;;;;;28.24;23.47;99265.94;5095218;28;748;-30
2021/01/25 05:22:51;;;;;;;;;;;;;;;28.50;22.86;99270.44;5096180;28;776;-34
2021/01/25 05:25:24;;;;;;;;;;;;;;;28.49;23.00;99258.81;5096623;28;1901;-33
2021/01/25 05:27:49;;;;;;;;;;;;;;;28.59;22.95;99261.78;5096003;28;949;-33
2021/01/25 05:30:15;;;;;;;;;;;;;;;28.75;22.73;99248.66;5096475;28;882;-33
2021/01/25 05:32:47;;;;;;;;;;;;;;;28.74;22.57;99255.16;5096440;28;762;-30
2021/01/25 05:35:13;;;;;;;;;;;;;;;28.67;22.76;99257.94;5095904;28;759;-31
2021/01/25 05:37:40;;;;;;;;;;;;;;;27.81;23.75;99248.75;5098731;28;775;-32
2021/01/25 05:40:05;;;;;;;;;;;;;;;26.74;25.16;99251.28;5100475;28;783;-33
2021/01/25 05:42:34;;;;;;;;;;;;;;;30.21;21.02;99245.81;5096141;28;1200;-29
2021/01/25 05:45:06;;;;;;;;;;;;;;;31.40;19.39;99255.22;5088215;28;1985;-34
2021/01/25 05:47:41;;;;;;;;;;;;;;;31.05;19.67;99257.09;5089854;28;1326;-34
2021/01/25 05:50:07;;;;;;;;;;;;;;;30.49;20.39;99247.72;5088331;28;1441;-30
2021/01/25 05:52:32;;;;;;;;;;;;;;;30.19;20.83;99246.03;5090984;28;1278;-30
2021/01/25 05:54:57;;;;;;;;;;;;;;;30.31;20.67;99246.03;5100279;28;780;-32
2021/01/25 05:57:23;;;;;;;;;;;;;;;30.34;20.39;99250.13;5098603;28;1424;-35
2021/01/25 05:59:48;;;;;;;;;;;;;;;30.38;20.58;99243.97;5079542;28;993;-32
2021/01/25 06:02:13;;;;;;;;;;;;;;;30.46;20.58;99245.50;5079855;28;870;-33
2021/01/25 06:04:38;;;;;;;;;;;;;;;30.53;20.52;99240.72;5079344;28;1906;-28
2021/01/25 06:07:05;;;;;;;;;;;;;;;30.60;20.26;99246.00;5080161;28;866;-31
2021/01/25 06:09:34;;;;;;;;;;;;;;;30.64;20.21;99241.75;5096388;28;1134;-32
2021/01/25 06:12:03;;;;;;;;;;;;;;;30.82;20.13;99245.34;5098728;28;767;-33
2021/01/25 06:14:38;;;;;;;;;;;;;;;30.94;19.90;99239.00;5098629;28;957;-30
2021/01/25 06:17:04;;;;;;;;;;;;;;;30.75;20.12;99236.47;5098557;28;843;-33
2021/01/25 06:19:29;;;;;;;;;;;;;;;30.66;20.25;99228.75;5099571;28;855;-30
2021/01/25 06:21:55;;;;;;;;;;;;;;;30.84;20.07;99228.78;5099748;28;811;-34
2021/01/25 06:24:20;;;;;;;;;;;;;;;30.91;19.85;99222.13;5098594;28;1909;-33
2021/01/25 06:26:47;;;;;;;;;;;;;;;30.97;19.86;99230.38;5099364;28;819;-31
2021/01/25 06:29:13;;;;;;;;;;;;;;;30.96;19.75;99226.00;5099239;28;1009;-33
2021/01/25 06:31:39;;;;;;;;;;;;;;;30.86;20.00;99230.22;5099337;28;827;-33
2021/01/25 06:34:11;;;;;;;;;;;;;;;30.68;19.95;99221.19;5099285;28;1061;-34
2021/01/25 06:36:37;;;;;;;;;;;;;;;29.68;21.17;99212.19;5099024;28;815;-31
2021/01/25 06:39:04;;;;;;;;;;;;;;;29.11;22.20;99205.47;5097795;28;864;-31
2021/01/25 06:41:36;;;;;;;;;;;;;;;31.06;19.68;99201.75;5098649;28;1051;-32
2021/01/25 06:44:01;;;;;;;;;;;;;;;30.81;20.11;99199.44;5098571;28;1977;-31
2021/01/25 06:46:26;;;;;;;;;;;;;;;30.67;20.29;99205.13;5097813;28;787;-31
2021/01/25 06:48:52;;;;;;;;;;;;;;;30.67;20.42;99203.25;5097073;28;1405;-34
2021/01/25 06:51:20;;;;;;;;;;;;;;;30.74;20.13;99202.28;5098907;28;826;-33
2021/01/25 06:53:49;;;;;;;;;;;;;;;30.77;20.03;99196.34;5099452;28;787;-32
2021/01/25 06:56:14;;;;;;;;;;;;;;;30.84;20.27;99186.19;5098094;28;855;-30
2021/01/25 06:58:44;;;;;;;;;;;;;;;30.99;19.84;99198.38;5098269;28;962;-33
2021/01/25 07:01:09;;;;;;;;;;;;;;;31.06;20.05;99193.59;5099384;28;780;-30
2021/01/25 07:03:51;;;;;;;;;;;;;;;30.97;19.67;99195.91;5098657;28;780;-34
2021/01/25 07:06:17;;;;;;;;;;;;;;;30.81;20.05;99194.84;5098790;28;760;-33
2021/01/25 07:08:54;;;;;;;;;;;;;;;30.17;20.69;99185.78;5098920;28;1203;-34
2021/01/25 07:11:21;;;;;;;;;;;;;;;29.36;21.85;99187.34;5098618;28;783;-31
2021/01/25 07:13:46;;;;;;;;;;;;;;;31.13;19.68;99188.81;5097527;28;858;-33
2021/01/25 07:16:11;;;;;;;;;;;;;;;32.00;18.75;99184.81;5098514;28;842;-32
2021/01/25 07:18:37;;;;;;;;;;;;;;;32.28;18.32;99189.47;5098352;28;819;-34
2021/01/25 07:21:02;;;;;;;;;;;;;;;31.56;19.16;99182.91;5097064;28;1294;-33
2021/01/25 07:23:28;;;;;;;;;;;;;;;31.33;19.58;99179.28;5098637;28;815;-32
2021/01/25 07:25:54;;;;;;;;;;;;;;;31.31;19.64;99172.47;5098104;28;1902;-30
2021/01/25 07:28:19;;;;;;;;;;;;;;;31.27;19.61;99172.16;5097702;28;985;-35
2021/01/25 07:30:44;;;;;;;;;;;;;;;30.79;20.06;99161.66;5098533;28;803;-32
2021/01/25 07:33:10;;;;;;;;;;;;;;;30.26;20.68;99164.56;5097961;28;822;-31
2021/01/25 07:35:35;;;;;;;;;;;;;;;31.71;19.27;99160.56;5098290;28;843;-30
2021/01/25 07:38:00;;;;;;;;;;;;;;;31.68;18.95;99157.50;5098203;28;779;-32
2021/01/25 07:40:25;;;;;;;;;;;;;;;30.31;20.43;99154.59;5097585;28;826;-31
2021/01/25 07:42:52;;;;;;;;;;;;;;;30.03;21.29;99145.38;5097297;28;1176;-29
2021/01/25 07:45:17;;;;;;;;;;;;;;;30.97;20.09;99143.47;5097667;28;1985;-31
2021/01/25 07:47:45;;;;;;;;;;;;;;;30.90;20.16;99139.03;5097494;28;708;-33
2021/01/25 07:50:11;;;;;;;;;;;;;;;31.02;20.15;99133.53;5098093;28;822;-34
2021/01/25 07:52:36;;;;;;;;;;;;;;;31.10;19.83;99121.41;5098289;28;712;-33
2021/01/25 07:55:11;;;;;;;;;;;;;;;31.15;19.82;99117.94;5097618;28;874;-28
2021/01/25 07:57:36;;;;;;;;;;;;;;;30.63;20.21;99100.88;5097940;28;933;-33
2021/01/25 08:00:12;;;;;;;;;;;;;;;30.31;20.61;99088.69;5097530;28;778;-31
2021/01/25 08:02:37;;;;;;;;;;;;;;;31.74;19.30;99093.97;5097355;28;814;-34
2021/01/25 08:05:03;;;;;;;;;;;;;;;31.50;19.43;99103.22;5097125;28;1905;-32
2021/01/25 08:07:28;;;;;;;;;;;;;;;30.29;20.72;99086.22;5096218;28;1094;-33
2021/01/25 08:09:54;;;;;;;;;;;;;;;30.45;20.81;99085.66;5096056;28;807;-31
2021/01/25 08:12:22;;;;;;;;;;;;;;;30.94;20.16;99078.81;5096181;28;874;-31
2021/01/25 08:14:49;;;;;;;;;;;;;;;31.07;20.11;99088.50;5096620;28;996;-33
2021/01/25 08:17:21;;;;;;;;;;;;;;;31.07;20.01;99072.19;5095431;28;955;-33
2021/01/25 08:20:08;;;;;;;;;;;;;;;31.24;19.88;99088.44;5097391;28;493;-34
2021/01/25 08:22:44;;;;;;;;;;;;;;;31.35;19.83;99094.81;5156188;27;1134;-33
2021/01/25 08:25:14;;;;;;;;;;;;;;;30.38;20.59;99093.97;5155605;27;864;-35
2021/01/25 08:27:39;;;;;;;;;;;;;;;31.33;19.89;99103.22;5151382;27;996;-35
2021/01/25 08:30:11;;;;;;;;;;;;;;;31.32;19.74;99096.16;5133296;28;819;-30
2021/01/25 08:32:41;;;;;;;;;;;;;;;31.40;19.76;99109.34;5133429;28;775;-34
2021/01/25 08:35:06;;;;;;;;;;;;;;;31.52;19.65;99103.78;5134917;27;767;-32
2021/01/25 08:37:33;;;;;;;;;;;;;;;31.56;19.63;99097.84;5135093;27;791;-31
2021/01/25 08:39:58;;;;;;;;;;;;;;;31.18;19.81;99100.34;5134452;27;803;-31
2021/01/25 08:42:25;;;;;;;;;;;;;;;30.47;20.68;99092.47;5134929;27;1970;-31
2021/01/25 08:44:51;;;;;;;;;;;;;;;31.30;19.80;99090.16;5153764;27;950;-32
2021/01/25 08:47:21;;;;;;;;;;;;;;;31.30;19.91;99095.59;5154010;27;752;-33
2021/01/25 08:49:47;;;;;;;;;;;;;;;31.43;19.98;99093.63;5154432;27;810;-35
2021/01/25 08:52:24;;;;;;;;;;;;;;;31.46;19.80;99096.66;5154115;27;775;-31
2021/01/25 08:54:49;;;;;;;;;;;;;;;31.46;19.88;99090.38;5155179;27;755;-31
2021/01/25 08:57:19;;;;;;;;;;;;;;;31.06;20.01;99089.56;5154276;27;846;-31
2021/01/25 08:59:44;;;;;;;;;;;;;;;30.59;20.57;99089.69;5134668;27;926;-31
2021/01/25 09:02:13;;;;;;;;;;;;;;;30.58;20.56;99082.59;5133627;27;1962;-33
2021/01/25 09:04:38;;;;;;;;;;;;;;;30.09;21.21;99083.13;5134646;27;870;-30
2021/01/25 09:07:03;;;;;;;;;;;;;;;30.29;21.34;99078.09;5134375;27;810;-28
2021/01/25 09:09:29;;;;;;;;;;;;;;;30.33;20.97;99069.47;5151510;27;1082;-32
2021/01/25 09:11:54;;;;;;;;;;;;;;;30.65;20.76;99069.69;5155025;27;779;-28
2021/01/25 09:14:21;;;;;;;;;;;;;;;30.93;20.37;99077.97;5137850;27;948;-30
2021/01/25 09:16:46;;;;;;;;;;;;;;;31.26;19.97;99067.28;5134010;27;902;-30
2021/01/25 09:19:12;;;;;;;;;;;;;;;31.48;19.83;99067.31;5134575;27;814;-30
2021/01/25 09:21:37;;;;;;;;;;;;;;;31.47;19.74;99053.97;5133839;27;1972;-29
2021/01/25 09:24:02;;;;;;;;;;;;;;;31.49;19.65;99049.94;5133953;27;790;-34
2021/01/25 09:26:27;;;;;;;;;;;;;;;31.46;19.76;99046.91;5133998;27;766;-33
2021/01/25 09:28:53;;;;;;;;;;;;;;;30.75;20.58;99041.03;5133941;27;957;-34
2021/01/25 09:31:22;;;;;;;;;;;;;;;30.71;20.91;99029.91;5133429;27;795;-34
2021/01/25 09:33:47;;;;;;;;;;;;;;;32.47;18.89;99037.50;5121611;27;806;-33
2021/01/25 09:36:12;;;;;;;;;;;;;;;31.07;20.16;99032.28;5119467;28;787;-34
2021/01/25 09:38:38;;;;;;;;;;;;;;;30.23;20.95;99029.44;5119925;28;732;-33
2021/01/25 09:41:03;;;;;;;;;;;;;;;30.65;20.83;99020.00;5119903;28;1913;-35
2021/01/25 09:43:28;;;;;;;;;;;;;;;30.98;20.47;99023.75;5119613;27;945;-33
2021/01/25 09:45:53;;;;;;;;;;;;;;;30.93;20.60;99034.53;5119808;28;759;-31
2021/01/25 09:48:19;;;;;;;;;;;;;;;30.89;20.56;99038.84;5119582;28;767;-31
2021/01/25 09:50:47;;;;;;;;;;;;;;;30.90;20.42;99035.03;5119854;28;827;-31
2021/01/25 09:53:13;;;;;;;;;;;;;;;30.90;20.51;99029.63;5119837;28;790;-33
2021/01/25 09:55:39;;;;;;;;;;;;;;;30.55;20.66;99043.22;5119724;28;838;-32
2021/01/25 09:58:04;;;;;;;;;;;;;;;30.48;20.93;99039.03;5119420;27;945;-31
2021/01/25 10:00:29;;;;;;;;;;;;;;;31.56;19.76;99040.78;5119685;28;1967;-32
2021/01/25 10:02:55;;;;;;;;;;;;;;;32.13;19.26;99030.47;5119492;28;838;-32
2021/01/25 10:05:20;;;;;;;;;;;;;;;30.65;20.75;99014.59;5119761;28;760;-32
2021/01/25 10:07:46;;;;;;;;;;;;;;;30.03;21.57;99009.03;5122186;27;1051;-32
2021/01/25 10:10:11;;;;;;;;;;;;;;;31.00;20.51;99009.91;5139462;27;771;-32
2021/01/25 10:12:37;;;;;;;;;;;;;;;30.86;20.67;99004.88;5137052;27;932;-29
2021/01/25 10:15:03;;;;;;;;;;;;;;;30.81;20.77;98998.56;5119262;28;736;-32
2021/01/25 10:17:29;;;;;;;;;;;;;;;30.85;20.61;98995.09;5118735;28;843;-32
2021/01/25 10:19:54;;;;;;;;;;;;;;;30.81;20.64;98985.81;5119530;28;716;-32
2021/01/25 10:22:20;;;;;;;;;;;;;;;30.71;20.69;98978.31;5118514;28;1980;-32
2021/01/25 10:24:45;;;;;;;;;;;;;;;30.50;21.03;98971.78;5118668;28;878;-33
2021/01/25 10:27:10;;;;;;;;;;;;;;;30.97;20.47;98973.25;5119346;28;795;-34
2021/01/25 10:29:35;;;;;;;;;;;;;;;31.64;19.77;98958.78;5118776;27;965;-33
2021/01/25 10:32:01;;;;;;;;;;;;;;;32.19;19.22;98958.72;5118744;28;826;-31
2021/01/25 10:34:26;;;;;;;;;;;;;;;30.82;20.86;98954.03;5119236;28;767;-28
2021/01/25 10:36:52;;;;;;;;;;;;;;;30.35;21.32;98947.94;5118771;28;823;-28
2021/01/25 10:39:18;;;;;;;;;;;;;;;30.02;21.77;98934.16;5118761;28;815;-27
2021/01/25 10:41:43;;;;;;;;;;;;;;;29.88;22.16;98937.19;5118834;28;1906;-32
2021/01/25 10:44:09;;;;;;;;;;;;;;;29.87;22.31;98927.44;5131789;27;989;-33
2021/01/25 10:46:34;;;;;;;;;;;;;;;29.94;23.58;98927.25;5139059;27;743;-32
2021/01/25 10:48:59;;;;;;;;;;;;;;;29.88;24.29;98920.94;5139497;27;791;-38
2021/01/25 10:51:25;;;;;;;;;;;;;;;29.85;26.79;98923.31;5139096;27;831;-35
2021/01/25 10:53:50;;;;;;;;;;;;;;;29.81;26.83;98910.25;5139012;27;759;-35
2021/01/25 10:56:15;;;;;;;;;;;;;;;29.50;27.52;98912.41;5139198;27;878;-34
2021/01/25 10:58:40;;;;;;;;;;;;;;;29.10;27.00;98900.59;5138769;27;1003;-33
2021/01/25 11:01:07;;;;;;;;;;;;;;;30.49;24.88;98899.59;5138673;27;1905;-34
2021/01/25 11:03:34;;;;;;;;;;;;;;;31.11;23.98;98900.38;5139081;27;810;-32
2021/01/25 11:06:00;;;;;;;;;;;;;;;31.13;23.82;98908.25;5139042;27;822;-34
2021/01/25 11:08:25;;;;;;;;;;;;;;;31.07;23.59;98914.69;5138285;27;1094;-35
2021/01/25 11:10:50;;;;;;;;;;;;;;;31.07;23.63;98904.66;5138896;27;771;-35
2021/01/25 11:13:16;;;;;;;;;;;;;;;31.02;23.57;98901.88;5130978;27;949;-34
2021/01/25 11:15:41;;;;;;;;;;;;;;;30.52;23.41;98899.09;5117991;28;760;-35
2021/01/25 11:18:06;;;;;;;;;;;;;;;30.02;24.09;98896.19;5118316;28;826;-35
2021/01/25 11:20:31;;;;;;;;;;;;;;;31.55;22.54;98903.25;5118138;28;2094;-36
2021/01/25 11:22:57;;;;;;;;;;;;;;;31.25;22.62;98930.66;5117876;28;746;-35
2021/01/25 11:25:22;;;;;;;;;;;;;;;30.99;22.98;98899.69;5118003;28;878;-34
2021/01/25 11:27:47;;;;;;;;;;;;;;;30.85;23.02;98946.22;5118452;27;1020;-35
2021/01/25 11:30:13;;;;;;;;;;;;;;;30.65;23.26;98941.31;5117453;28;802;-35
2021/01/25 11:32:38;;;;;;;;;;;;;;;30.71;23.13;98964.75;5117780;27;779;-34
2021/01/25 11:35:04;;;;;;;;;;;;;;;30.67;23.19;98993.44;5118047;28;786;-35
2021/01/25 11:37:29;;;;;;;;;;;;;;;30.66;23.02;99006.19;5117625;28;799;-34
2021/01/25 11:39:54;;;;;;;;;;;;;;;30.73;22.79;99025.00;5117637;28;751;-32
2021/01/25 11:42:20;;;;;;;;;;;;;;;30.77;22.42;99047.06;5117762;28;1906;-34
2021/01/25 11:44:45;;;;;;;;;;;;;;;30.72;22.76;99041.56;5116976;27;946;-33
2021/01/25 11:47:10;;;;;;;;;;;;;;;30.77;22.65;99063.34;5117611;28;751;-37
2021/01/25 11:49:35;;;;;;;;;;;;;;;30.76;22.54;99078.00;5117856;28;810;-34
2021/01/25 11:52:01;;;;;;;;;;;;;;;30.76;22.55;99105.94;5117294;28;799;-33
2021/01/25 11:54:26;;;;;;;;;;;;;;;30.77;22.38;99120.34;5117492;28;893;-33
2021/01/25 11:56:51;;;;;;;;;;;;;;;30.81;22.42;99135.13;5117231;28;767;-32
2021/01/25 11:59:17;;;;;;;;;;;;;;;30.76;22.17;99141.22;5117357;27;999;-32
2021/01/25 12:01:42;;;;;;;;;;;;;;;30.67;22.18;99140.84;5117177;28;1964;-34
2021/01/25 12:04:07;;;;;;;;;;;;;;;30.68;22.36;99147.06;5117384;28;767;-33
2021/01/25 12:06:33;;;;;;;;;;;;;;;30.69;22.27;99178.59;5117007;28;837;-35
2021/01/25 12:08:58;;;;;;;;;;;;;;;30.77;22.15;99196.34;5130331;27;1189;-31
2021/01/25 12:11:24;;;;;;;;;;;;;;;30.79;22.02;99192.34;5137841;27;775;-35
2021/01/25 12:13:49;;;;;;;;;;;;;;;30.78;21.85;99206.16;5125528;27;937;-31
2021/01/25 12:16:15;;;;;;;;;;;;;;;30.78;21.88;99206.16;5116733;28;854;-33
2021/01/25 12:18:41;;;;;;;;;;;;;;;30.65;21.76;99202.69;5117063;28;791;-32
2021/01/25 12:21:06;;;;;;;;;;;;;;;30.74;21.89;99213.97;5116677;28;1918;-33
2021/01/25 12:23:31;;;;;;;;;;;;;;;30.71;21.78;99232.63;5116890;28;800;-34
2021/01/25 12:25:56;;;;;;;;;;;;;;;30.87;21.33;99250.03;5117123;28;783;-31
2021/01/25 12:28:22;;;;;;;;;;;;;;;30.90;21.35;99246.81;5116807;27;964;-35
2021/01/25 12:30:47;;;;;;;;;;;;;;;30.89;21.10;99250.59;5116635;28;779;-33
2021/01/25 12:33:12;;;;;;;;;;;;;;;30.81;21.48;99259.16;5117155;28;812;-33
2021/01/25 12:35:38;;;;;;;;;;;;;;;30.41;21.51;99267.09;5116765;28;732;-30
2021/01/25 12:38:04;;;;;;;;;;;;;;;30.10;21.71;99258.28;5116637;28;803;-28
2021/01/25 12:40:29;;;;;;;;;;;;;;;31.03;20.86;99275.56;5116870;28;1909;-36
2021/01/25 12:42:54;;;;;;;;;;;;;;;30.67;21.32;99265.69;5116050;27;997;-38
2021/01/25 12:45:20;;;;;;;;;;;;;;;30.34;21.70;99263.69;5116573;28;779;-35
2021/01/25 12:47:46;;;;;;;;;;;;;;;30.13;22.11;99265.97;5117113;28;731;-34
2021/01/25 12:50:11;;;;;;;;;;;;;;;30.15;22.02;99283.66;5116618;28;763;-33
2021/01/25 12:52:36;;;;;;;;;;;;;;;30.18;21.87;99288.59;5116947;28;764;-35
2021/01/25 12:55:11;;;;;;;;;;;;;;;30.27;21.77;99294.50;5116736;28;759;-29
2021/01/25 12:57:37;;;;;;;;;;;;;;;30.35;21.64;99306.00;5116294;27;925;-32
2021/01/25 13:00:03;;;;;;;;;;;;;;;30.43;21.43;99316.50;5116452;28;771;-28